createdAt,value
2023-11-16T00:00:02.570Z,99758.56
2023-11-16T00:02:31.624Z,99768.66
2023-11-16T00:04:58.625Z,99781.69
2023-11-16T00:07:25.199Z,99794.31
2023-11-16T00:09:52.410Z,99811.94
2023-11-16T00:12:19.258Z,99802.31
2023-11-16T00:14:45.905Z,99797.66
2023-11-16T00:17:12.428Z,99798.66
2023-11-16T00:19:38.844Z,99775.72
2023-11-16T00:22:05.336Z,99780.88
2023-11-16T00:24:32.348Z,99768.41
2023-11-16T00:26:59.056Z,99773.38
2023-11-16T00:29:25.544Z,99777.63
2023-11-16T00:31:51.926Z,99770.25
2023-11-16T00:34:18.747Z,99782.44
2023-11-16T00:36:46.188Z,99793.84
2023-11-16T00:39:17.697Z,99800.97
2023-11-16T00:41:44.308Z,99801.09
2023-11-16T00:44:11.109Z,99806.47
2023-11-16T00:46:40.687Z,99818.47
2023-11-16T00:49:07.322Z,99841.75
2023-11-16T00:51:33.793Z,99872.94
2023-11-16T00:54:01.347Z,99893.50
2023-11-16T00:56:28.106Z,99929.41
2023-11-16T00:58:54.619Z,99967.13
2023-11-16T01:01:21.225Z,99999.69
2023-11-16T01:03:47.841Z,100009.84
2023-11-16T01:06:14.462Z,100024.22
2023-11-16T01:08:40.983Z,100038.19
2023-11-16T01:11:08.656Z,100053.28
2023-11-16T01:13:36.016Z,100065.00
2023-11-16T01:16:02.529Z,100084.41
2023-11-16T01:18:29.322Z,100081.50
2023-11-16T01:20:55.736Z,100082.63
2023-11-16T01:23:22.164Z,100077.06
2023-11-16T01:25:48.637Z,100069.97
2023-11-16T01:28:15.124Z,100063.66
2023-11-16T01:30:41.861Z,100059.91
2023-11-16T01:33:08.924Z,100065.03
2023-11-16T01:35:39.467Z,100048.53
2023-11-16T01:38:08.053Z,100061.66
2023-11-16T01:40:36.154Z,100069.75
2023-11-16T01:43:03.639Z,100101.72
2023-11-16T01:45:34.127Z,100115.53
2023-11-16T01:48:05.194Z,100132.09
2023-11-16T01:50:33.924Z,100148.56
2023-11-16T01:53:01.947Z,100170.56
2023-11-16T01:55:28.458Z,100191.06
2023-11-16T01:57:55.158Z,100228.47
2023-11-16T02:00:21.713Z,100233.19
2023-11-16T02:02:49.330Z,100226.09
2023-11-16T02:05:16.300Z,100215.53
2023-11-16T02:07:44.420Z,100196.34
2023-11-16T02:10:11.287Z,100162.28
2023-11-16T02:12:37.902Z,100148.59
2023-11-16T02:15:04.985Z,100130.44
2023-11-16T02:17:31.455Z,100115.09
2023-11-16T02:20:00.980Z,100108.09
2023-11-16T02:22:29.581Z,100101.94
2023-11-16T02:24:56.287Z,100103.91
2023-11-16T02:27:23.014Z,100122.47
2023-11-16T02:29:51.546Z,100137.69
2023-11-16T02:32:19.440Z,100131.41
2023-11-16T02:34:46.042Z,100121.63
2023-11-16T02:37:12.479Z,100127.34
2023-11-16T02:39:39.073Z,100135.13
2023-11-16T02:42:06.175Z,100154.94
2023-11-16T02:44:32.686Z,100164.44
2023-11-16T02:46:59.512Z,100180.31
2023-11-16T02:49:27.427Z,100206.84
2023-11-16T02:51:53.887Z,100210.75
2023-11-16T02:54:20.423Z,100216.38
2023-11-16T02:56:46.868Z,100212.31
2023-11-16T02:59:13.414Z,100213.94
2023-11-16T03:01:39.876Z,100234.06
2023-11-16T03:04:06.565Z,100249.84
2023-11-16T03:06:34.704Z,100246.63
2023-11-16T03:09:01.261Z,100260.47
2023-11-16T03:11:27.606Z,100255.84
2023-11-16T03:13:54.064Z,100248.53
2023-11-16T03:16:20.626Z,100225.47
2023-11-16T03:18:47.430Z,100214.22
2023-11-16T03:21:14.270Z,100181.41
2023-11-16T03:23:41.265Z,100181.19
2023-11-16T03:26:07.758Z,100191.78
2023-11-16T03:28:34.477Z,100206.97
2023-11-16T03:31:01.013Z,100230.72
2023-11-16T03:33:27.590Z,100246.72
2023-11-16T03:35:54.946Z,100256.47
2023-11-16T03:38:21.474Z,100256.22
2023-11-16T03:40:48.225Z,100263.66
2023-11-16T03:43:14.762Z,100248.41
2023-11-16T03:45:41.382Z,100258.50
2023-11-16T03:48:09.742Z,100276.38
2023-11-16T03:50:37.218Z,100274.53
2023-11-16T03:53:04.038Z,100281.19
2023-11-16T03:55:30.600Z,100308.22
2023-11-16T03:57:57.083Z,100326.78
2023-11-16T04:00:23.613Z,100336.44
2023-11-16T04:02:50.392Z,100342.16
2023-11-16T04:05:17.030Z,100362.94
2023-11-16T04:07:45.510Z,100359.50
2023-11-16T04:10:12.451Z,100360.34
2023-11-16T04:12:39.751Z,100357.00
2023-11-16T04:15:07.621Z,100351.44
2023-11-16T04:17:34.125Z,100354.94
2023-11-16T04:20:00.665Z,100354.22
2023-11-16T04:22:28.678Z,100342.03
2023-11-16T04:24:55.336Z,100343.50
2023-11-16T04:27:22.215Z,100336.75
2023-11-16T04:29:48.808Z,100337.47
2023-11-16T04:32:15.540Z,100332.31
2023-11-16T04:34:41.974Z,100347.09
2023-11-16T04:37:08.571Z,100349.09
2023-11-16T04:39:35.223Z,100362.75
2023-11-16T04:42:03.298Z,100355.91
2023-11-16T04:44:29.727Z,100359.84
2023-11-16T04:46:56.250Z,100366.81
2023-11-16T04:49:23.048Z,100379.44
2023-11-16T04:51:49.570Z,100375.56
2023-11-16T04:54:16.330Z,100380.69
2023-11-16T04:56:43.016Z,100377.56
2023-11-16T04:59:10.732Z,100379.13
2023-11-16T05:01:38.161Z,100377.44
2023-11-16T05:04:05.185Z,100371.63
2023-11-16T05:06:34.245Z,100370.13
2023-11-16T05:09:00.906Z,100361.91
2023-11-16T05:11:27.447Z,100350.19
2023-11-16T05:13:53.918Z,100347.31
2023-11-16T05:16:20.715Z,100339.34
2023-11-16T05:18:47.541Z,100334.88
2023-11-16T05:21:17.689Z,100331.81
2023-11-16T05:23:44.789Z,100328.59
2023-11-16T05:26:11.259Z,100321.69
2023-11-16T05:28:37.795Z,100319.44
2023-11-16T05:31:04.708Z,100325.47
2023-11-16T05:33:32.804Z,100329.22
2023-11-16T05:35:59.764Z,100330.31
2023-11-16T05:38:27.372Z,100331.56
2023-11-16T05:40:53.931Z,100338.44
2023-11-16T05:43:21.071Z,100342.31
2023-11-16T05:45:47.760Z,100349.56
2023-11-16T05:48:14.380Z,100346.78
2023-11-16T05:50:40.954Z,100372.78
2023-11-16T05:53:07.612Z,100369.88
2023-11-16T05:55:36.717Z,100367.38
2023-11-16T05:58:03.484Z,100368.00
2023-11-16T06:00:30.033Z,100378.59
2023-11-16T06:02:57.106Z,100377.78
2023-11-16T06:05:24.127Z,100373.31
2023-11-16T06:07:50.800Z,100370.19
2023-11-16T06:10:18.784Z,100369.25
2023-11-16T06:12:45.491Z,100371.47
2023-11-16T06:15:12.237Z,100368.13
2023-11-16T06:17:39.214Z,100361.28
2023-11-16T06:20:06.189Z,100367.16
2023-11-16T06:22:33.379Z,100375.94
2023-11-16T06:24:59.910Z,100369.66
2023-11-16T06:27:26.819Z,100369.66
2023-11-16T06:29:53.213Z,100369.81
2023-11-16T06:32:21.076Z,100378.09
2023-11-16T06:34:47.552Z,100383.66
2023-11-16T06:37:14.211Z,100382.56
2023-11-16T06:39:41.881Z,100384.53
2023-11-16T06:42:08.558Z,100383.13
2023-11-16T06:44:35.208Z,100374.44
2023-11-16T06:47:03.943Z,100370.00
2023-11-16T06:49:30.728Z,100373.34
2023-11-16T06:51:57.737Z,100364.56
2023-11-16T06:54:33.472Z,100350.56
2023-11-16T06:57:05.064Z,100346.13
2023-11-16T06:59:32.146Z,100345.88
2023-11-16T07:01:59.006Z,100345.81
2023-11-16T07:04:25.551Z,100350.41
2023-11-16T07:06:54.088Z,100357.06
2023-11-16T07:09:20.706Z,100343.84
2023-11-16T07:11:48.285Z,100343.22
2023-11-16T07:14:14.793Z,100350.19
2023-11-16T07:16:42.876Z,100348.63
2023-11-16T07:19:09.385Z,100333.81
2023-11-16T07:21:36.299Z,100327.56
2023-11-16T07:24:03.144Z,100328.13
2023-11-16T07:26:29.689Z,100327.16
2023-11-16T07:28:59.096Z,100317.25
2023-11-16T07:31:25.938Z,100309.19
2023-11-16T07:33:52.664Z,100310.31
2023-11-16T07:36:23.260Z,100302.69
2023-11-16T07:38:50.295Z,100308.00
2023-11-16T07:41:16.803Z,100299.84
2023-11-16T07:43:43.238Z,100299.16
2023-11-16T07:46:10.464Z,100295.84
2023-11-16T07:48:36.949Z,100298.06
2023-11-16T07:51:04.670Z,100291.09
2023-11-16T07:53:31.431Z,100279.63
2023-11-16T07:55:57.998Z,100281.47
2023-11-16T07:58:24.618Z,100275.50
2023-11-16T08:00:51.269Z,100270.75
2023-11-16T08:03:18.167Z,100253.69
2023-11-16T08:05:45.257Z,100236.78
2023-11-16T08:08:12.091Z,100230.38
2023-11-16T08:10:39.616Z,100225.78
2023-11-16T08:13:06.686Z,100212.34
2023-11-16T08:15:34.085Z,100196.69
2023-11-16T08:18:00.983Z,100172.22
2023-11-16T08:20:27.933Z,100152.25
2023-11-16T08:22:54.426Z,100150.84
2023-11-16T08:25:24.892Z,100127.78
2023-11-16T08:27:52.810Z,100065.81
2023-11-16T08:30:20.185Z,100036.19
2023-11-16T08:32:46.983Z,100008.78
2023-11-16T08:35:13.548Z,99983.28
2023-11-16T08:37:41.392Z,99969.41
2023-11-16T08:40:08.839Z,99963.88
2023-11-16T08:42:35.350Z,99917.50
2023-11-16T08:45:01.918Z,99839.50
2023-11-16T08:47:28.471Z,99793.88
2023-11-16T08:49:54.974Z,99768.09
2023-11-16T08:52:22.016Z,99731.81
2023-11-16T08:54:48.655Z,99647.69
2023-11-16T08:57:15.332Z,99599.38
2023-11-16T08:59:42.382Z,99562.66
2023-11-16T09:02:09.028Z,99521.44
2023-11-16T09:04:35.917Z,99500.16
2023-11-16T09:07:02.717Z,99413.84
2023-11-16T09:09:29.383Z,99369.94
2023-11-16T09:11:56.034Z,99386.59
2023-11-16T09:14:25.033Z,99401.22
2023-11-16T09:17:05.853Z,99486.91
2023-11-16T09:19:36.838Z,99488.72
2023-11-16T09:22:03.586Z,99463.44
2023-11-16T09:24:32.318Z,99435.81
2023-11-16T09:26:58.876Z,99445.44
2023-11-16T09:29:25.332Z,99409.19
2023-11-16T09:31:51.912Z,99428.66
2023-11-16T09:34:18.749Z,99470.09
2023-11-16T09:36:45.193Z,99474.75
2023-11-16T09:39:14.993Z,99396.53
2023-11-16T09:41:48.385Z,99338.94
2023-11-16T09:44:15.942Z,99309.78
2023-11-16T09:46:50.154Z,99290.38
2023-11-16T09:49:18.697Z,99249.16
2023-11-16T09:51:46.650Z,99240.06
2023-11-16T09:54:14.170Z,99221.63
2023-11-16T09:56:43.039Z,99190.41
2023-11-16T09:59:10.803Z,99175.03
2023-11-16T10:01:37.979Z,99204.06
2023-11-16T10:04:05.841Z,99246.00
2023-11-16T10:06:33.455Z,99231.97
2023-11-16T10:08:59.941Z,99290.25
2023-11-16T10:11:26.612Z,99244.03
2023-11-16T10:13:54.565Z,99237.13
2023-11-16T10:16:26.288Z,99227.50
2023-11-16T10:19:03.942Z,99253.25
2023-11-16T10:21:30.528Z,99269.41
2023-11-16T10:23:59.399Z,99263.59
2023-11-16T10:26:26.243Z,99245.59
2023-11-16T10:28:54.124Z,99209.44
2023-11-16T10:31:21.747Z,99221.44
2023-11-16T10:33:50.028Z,99219.47
2023-11-16T10:36:16.480Z,99193.09
2023-11-16T10:38:44.540Z,99175.03
2023-11-16T10:41:12.145Z,99135.53
2023-11-16T10:43:40.739Z,99106.91
2023-11-16T10:46:08.207Z,99105.16
2023-11-16T10:48:37.877Z,99070.09
2023-11-16T10:51:11.239Z,99060.47
2023-11-16T10:53:40.374Z,99051.44
2023-11-16T10:56:07.719Z,99035.81
2023-11-16T10:58:37.090Z,99029.69
2023-11-16T11:01:04.493Z,99049.97
2023-11-16T11:03:31.729Z,99031.09
2023-11-16T11:05:58.169Z,98997.16
2023-11-16T11:08:36.104Z,99010.19
2023-11-16T11:11:04.076Z,98984.13
2023-11-16T11:13:33.919Z,98940.50
2023-11-16T11:16:14.015Z,98950.13
2023-11-16T11:18:50.533Z,98950.38
2023-11-16T11:21:22.051Z,98936.91
2023-11-16T11:24:02.750Z,98955.22
2023-11-16T11:26:40.178Z,98943.69
2023-11-16T11:29:06.563Z,98904.47
2023-11-16T11:31:38.064Z,98845.28
2023-11-16T11:34:05.198Z,98842.44
2023-11-16T11:36:32.294Z,98825.88
2023-11-16T11:38:59.267Z,98816.63
2023-11-16T11:41:25.708Z,98762.03
2023-11-16T11:43:52.475Z,98731.38
2023-11-16T11:46:19.415Z,98760.38
2023-11-16T11:48:47.280Z,98751.31
2023-11-16T11:51:14.787Z,98729.41
2023-11-16T11:53:45.816Z,98742.06
2023-11-16T11:56:14.012Z,98710.06
2023-11-16T11:58:40.930Z,98682.16
2023-11-16T12:01:07.545Z,98682.63
2023-11-16T12:03:34.336Z,98649.03
2023-11-16T12:06:05.408Z,98653.59
2023-11-16T12:08:42.671Z,98644.78
2023-11-16T12:11:11.288Z,98642.34
2023-11-16T12:13:41.412Z,98643.44
2023-11-16T12:16:10.480Z,98670.81
2023-11-16T12:18:38.517Z,98678.59
2023-11-16T12:21:24.633Z,98643.19
2023-11-16T12:23:54.001Z,98604.06
2023-11-16T12:26:27.699Z,98607.88
2023-11-16T12:28:56.210Z,98622.56
2023-11-16T12:31:23.488Z,98591.13
2023-11-16T12:33:50.607Z,98601.91
2023-11-16T12:36:25.152Z,98579.34
2023-11-16T12:38:53.016Z,98537.13
2023-11-16T12:41:23.759Z,98557.16
2023-11-16T12:43:52.263Z,98595.03
2023-11-16T12:46:22.042Z,98578.81
2023-11-16T12:48:48.641Z,98563.03
2023-11-16T12:51:15.241Z,98564.47
2023-11-16T12:53:41.844Z,98567.69
2023-11-16T12:56:09.118Z,98619.53
2023-11-16T12:58:37.952Z,98618.44
2023-11-16T13:01:08.799Z,98630.97
2023-11-16T13:03:43.268Z,98658.25
2023-11-16T13:06:15.921Z,98667.47
2023-11-16T13:08:45.453Z,98694.50
2023-11-16T13:11:13.261Z,98688.53
2023-11-16T13:13:41.289Z,98711.91
2023-11-16T13:16:08.904Z,98773.06
2023-11-16T13:18:35.488Z,98807.06
2023-11-16T13:21:02.535Z,98874.97
2023-11-16T13:23:29.017Z,98984.78
2023-11-16T13:25:55.481Z,99008.81
2023-11-16T13:28:24.262Z,99047.78
2023-11-16T13:30:51.006Z,99128.56
2023-11-16T13:33:19.113Z,99235.09
2023-11-16T13:35:46.012Z,99309.16
2023-11-16T13:38:13.054Z,99405.00
2023-11-16T13:40:39.586Z,99411.53
2023-11-16T13:43:06.668Z,99353.31
2023-11-16T13:45:33.619Z,99247.00
2023-11-16T13:48:00.463Z,99275.78
2023-11-16T13:50:27.241Z,99292.78
2023-11-16T13:52:56.034Z,99328.38
2023-11-16T13:55:23.945Z,99348.34
2023-11-16T13:57:50.594Z,99359.66
2023-11-16T14:00:17.886Z,99325.25
2023-11-16T14:02:44.944Z,99270.88
2023-11-16T14:05:14.479Z,99257.59
2023-11-16T14:07:42.505Z,99281.38
2023-11-16T14:10:20.231Z,99311.28
2023-11-16T14:12:50.670Z,99322.91
2023-11-16T14:15:17.159Z,99321.75
2023-11-16T14:17:44.115Z,99330.22
2023-11-16T14:20:11.226Z,99337.72
2023-11-16T14:22:39.658Z,99323.75
2023-11-16T14:25:07.670Z,99313.47
2023-11-16T14:27:35.572Z,99332.06
2023-11-16T14:30:02.679Z,99367.94
2023-11-16T14:32:29.870Z,99416.63
2023-11-16T14:35:01.930Z,99459.63
2023-11-16T14:37:33.872Z,99490.56
2023-11-16T14:40:01.204Z,99527.59
2023-11-16T14:42:29.792Z,99555.00
2023-11-16T14:44:56.548Z,99569.44
2023-11-16T14:47:32.416Z,99591.53
2023-11-16T14:50:03.398Z,99610.63
2023-11-16T14:52:31.547Z,98437.13
2023-11-16T14:54:57.997Z,98318.75
2023-11-16T14:57:26.084Z,98291.94
2023-11-16T14:59:52.653Z,98246.16
2023-11-16T15:02:19.295Z,98227.56
2023-11-16T15:04:46.394Z,98225.06
2023-11-16T15:07:13.378Z,98223.44
2023-11-16T15:09:40.024Z,98223.44
2023-11-16T15:12:06.765Z,98218.13
2023-11-16T15:14:33.747Z,98214.28
2023-11-16T15:17:00.311Z,98203.81
2023-11-16T15:19:27.406Z,98183.44
2023-11-16T15:21:53.951Z,98174.16
2023-11-16T15:24:21.948Z,98156.06
2023-11-16T15:26:51.252Z,98148.19
2023-11-16T15:29:18.757Z,98138.31
2023-11-16T15:31:45.906Z,98130.91
2023-11-16T15:34:16.530Z,98115.56
2023-11-16T15:36:43.358Z,98113.66
2023-11-16T15:39:10.643Z,98101.19
2023-11-16T15:41:40.214Z,98096.25
2023-11-16T15:44:07.129Z,98085.81
2023-11-16T15:46:34.372Z,98081.66
2023-11-16T15:49:04.135Z,98089.41
2023-11-16T15:51:30.769Z,98100.03
2023-11-16T15:53:58.210Z,98109.50
2023-11-16T15:56:29.075Z,98111.53
2023-11-16T15:58:56.274Z,98100.91
2023-11-16T16:01:24.442Z,98092.34
2023-11-16T16:03:52.716Z,98090.22
2023-11-16T16:06:25.841Z,98098.38
2023-11-16T16:08:52.995Z,98084.88
2023-11-16T16:11:20.771Z,98082.00
2023-11-16T16:13:47.275Z,98078.09
2023-11-16T16:16:14.021Z,98079.28
2023-11-16T16:18:41.567Z,98079.41
2023-11-16T16:21:11.918Z,98073.16
2023-11-16T16:23:38.536Z,98067.53
2023-11-16T16:26:05.216Z,98066.50
2023-11-16T16:28:32.980Z,98077.91
2023-11-16T16:30:59.644Z,98057.69
2023-11-16T16:33:26.433Z,98035.63
2023-11-16T16:35:52.897Z,98023.63
2023-11-16T16:38:19.636Z,98007.63
2023-11-16T16:40:46.823Z,98013.75
2023-11-16T16:43:13.839Z,98008.72
2023-11-16T16:45:44.056Z,98006.81
2023-11-16T16:48:12.692Z,97992.75
2023-11-16T16:50:40.302Z,97985.53
2023-11-16T16:53:07.667Z,97974.69
2023-11-16T16:55:34.802Z,97957.13
2023-11-16T16:58:02.157Z,97936.28
2023-11-16T17:00:28.845Z,97927.13
2023-11-16T17:02:55.552Z,97891.75
2023-11-16T17:05:22.290Z,97863.94
2023-11-16T17:07:49.026Z,97828.44
2023-11-16T17:10:15.796Z,97798.41
2023-11-16T17:12:42.383Z,97774.38
2023-11-16T17:15:09.256Z,97756.81
2023-11-16T17:17:36.914Z,97743.75
2023-11-16T17:20:03.708Z,97723.78
2023-11-16T17:22:31.611Z,97703.97
2023-11-16T17:24:58.225Z,97700.91
2023-11-16T17:27:24.874Z,97682.94
2023-11-16T17:29:51.606Z,97681.50
2023-11-16T17:32:18.280Z,97674.38
2023-11-16T17:34:44.791Z,97671.09
2023-11-16T17:37:11.403Z,97664.38
2023-11-16T17:39:39.777Z,97654.00
2023-11-16T17:42:06.500Z,97657.69
2023-11-16T17:44:33.151Z,97652.97
2023-11-16T17:46:59.902Z,97657.44
2023-11-16T17:49:26.408Z,97660.09
2023-11-16T17:51:53.137Z,97660.50
2023-11-16T17:54:19.571Z,97672.72
2023-11-16T17:56:46.371Z,97667.00
2023-11-16T17:59:12.867Z,97675.53
2023-11-16T18:01:39.531Z,97671.22
2023-11-16T18:04:06.640Z,97673.06
2023-11-16T18:06:33.495Z,97666.75
2023-11-16T18:09:00.329Z,97676.78
2023-11-16T18:11:27.596Z,97681.00
2023-11-16T18:13:54.165Z,97680.59
2023-11-16T18:16:22.323Z,97678.75
2023-11-16T18:18:51.976Z,97673.66
2023-11-16T18:21:18.941Z,97678.75
2023-11-16T18:23:45.865Z,97675.91
2023-11-16T18:26:12.423Z,97667.34
2023-11-16T18:28:39.685Z,97660.06
2023-11-16T18:31:10.606Z,97644.69
2023-11-16T18:33:37.284Z,97648.78
2023-11-16T18:36:04.015Z,97645.28
2023-11-16T18:38:30.951Z,97643.47
2023-11-16T18:40:58.063Z,97652.22
2023-11-16T18:43:25.185Z,97660.00
2023-11-16T18:45:52.544Z,97657.13
2023-11-16T18:48:19.179Z,97664.91
2023-11-16T18:50:45.705Z,97673.44
2023-11-16T18:53:13.120Z,97662.03
2023-11-16T18:55:41.793Z,97663.25
2023-11-16T18:58:08.620Z,97660.50
2023-11-16T19:00:35.724Z,97647.84
2023-11-16T19:03:14.190Z,97643.47
2023-11-16T19:05:45.670Z,97647.16
2023-11-16T19:08:12.655Z,97653.91
2023-11-16T19:10:39.863Z,97645.09
2023-11-16T19:13:06.420Z,97644.50
2023-11-16T19:15:33.537Z,97644.50
2023-11-16T19:18:00.266Z,97647.34
2023-11-16T19:20:27.140Z,97647.34
2023-11-16T19:22:53.753Z,97646.94
2023-11-16T19:25:20.975Z,97636.53
2023-11-16T19:27:50.568Z,97633.06
2023-11-16T19:30:17.115Z,97627.56
2023-11-16T19:32:46.907Z,97623.06
2023-11-16T19:35:13.703Z,97619.22
2023-11-16T19:37:40.216Z,97624.13
2023-11-16T19:40:07.635Z,97614.31
2023-11-16T19:42:34.197Z,97603.13
2023-11-16T19:45:00.648Z,97597.03
2023-11-16T19:47:35.440Z,97600.88
2023-11-16T19:50:03.522Z,97595.59
2023-11-16T19:52:30.276Z,97594.94
2023-11-16T19:54:56.782Z,97595.34
2023-11-16T19:57:23.618Z,97591.31
2023-11-16T19:59:50.739Z,97593.72
2023-11-16T20:02:18.955Z,97580.75
2023-11-16T20:04:45.970Z,97594.59
2023-11-16T20:07:12.635Z,97593.78
2023-11-16T20:09:39.558Z,97607.84
2023-11-16T20:12:07.798Z,97604.34
2023-11-16T20:14:34.636Z,97604.72
2023-11-16T20:17:01.238Z,97611.13
2023-11-16T20:19:30.034Z,97597.38
2023-11-16T20:21:56.564Z,97601.06
2023-11-16T20:24:23.106Z,97600.41
2023-11-16T20:26:49.910Z,97601.66
2023-11-16T20:29:17.711Z,97602.06
2023-11-16T20:31:47.277Z,97601.28
2023-11-16T20:34:13.844Z,97601.22
2023-11-16T20:36:41.063Z,97603.25
2023-11-16T20:39:07.656Z,97601.59
2023-11-16T20:41:41.284Z,97587.50
2023-11-16T20:44:10.436Z,97583.66
2023-11-16T20:46:36.980Z,97581.97
2023-11-16T20:49:03.795Z,97571.59
2023-11-16T20:51:33.681Z,97565.25
2023-11-16T20:54:00.462Z,97564.44
2023-11-16T20:56:27.344Z,97555.28
2023-11-16T20:58:53.732Z,97565.47
2023-11-16T21:01:20.246Z,97559.78
2023-11-16T21:03:47.237Z,97562.81
2023-11-16T21:06:14.051Z,97560.16
2023-11-16T21:08:43.035Z,97562.41
2023-11-16T21:11:12.235Z,97557.09
2023-11-16T21:13:39.084Z,97562.00
2023-11-16T21:16:08.909Z,97563.63
2023-11-16T21:18:36.355Z,97566.47
2023-11-16T21:21:02.971Z,97571.78
2023-11-16T21:23:29.390Z,97560.56
2023-11-16T21:25:55.747Z,97553.44
2023-11-16T21:28:22.559Z,97557.09
2023-11-16T21:30:49.027Z,97560.97
2023-11-16T21:33:15.585Z,97551.63
2023-11-16T21:35:43.445Z,97558.13
2023-11-16T21:38:10.176Z,97558.13
2023-11-16T21:40:36.782Z,97555.88
2023-11-16T21:43:03.703Z,97562.19
2023-11-16T21:45:30.276Z,97561.78
2023-11-16T21:47:57.388Z,97554.47
2023-11-16T21:50:23.951Z,97562.63
2023-11-16T21:52:50.488Z,97559.97
2023-11-16T21:55:16.970Z,97567.72
2023-11-16T21:57:43.522Z,97565.69
2023-11-16T22:00:11.836Z,97570.38
2023-11-16T22:02:38.431Z,97572.25
2023-11-16T22:05:14.288Z,97572.25
2023-11-16T22:07:51.306Z,97577.94
2023-11-16T22:10:18.764Z,97577.53
2023-11-16T22:12:50.476Z,97570.56
2023-11-16T22:15:18.210Z,97572.25
2023-11-16T22:17:46.384Z,97570.59
2023-11-16T22:20:13.639Z,97571.44
2023-11-16T22:22:40.234Z,97576.09
2023-11-16T22:25:07.485Z,97597.53
2023-11-16T22:27:34.019Z,97614.69
2023-11-16T22:30:01.245Z,97623.25
2023-11-16T22:32:27.605Z,97629.38
2023-11-16T22:34:54.380Z,97651.59
2023-11-16T22:37:20.912Z,97661.19
2023-11-16T22:39:47.432Z,97663.44
2023-11-16T22:42:13.853Z,97677.09
2023-11-16T22:44:40.344Z,97686.69
2023-11-16T22:47:08.385Z,97697.50
2023-11-16T22:49:34.975Z,97701.13
2023-11-16T22:52:01.487Z,97714.59
2023-11-16T22:54:30.945Z,97720.91
2023-11-16T22:56:57.466Z,97731.31
2023-11-16T22:59:24.195Z,97729.69
2023-11-16T23:01:50.767Z,97736.63
2023-11-16T23:04:17.663Z,97744.81
2023-11-16T23:06:44.124Z,97751.13
2023-11-16T23:09:10.927Z,97754.59
2023-11-16T23:11:37.386Z,97769.50
2023-11-16T23:14:03.811Z,97778.69
2023-11-16T23:16:30.444Z,97781.56
2023-11-16T23:18:57.108Z,97792.56
2023-11-16T23:21:33.534Z,97804.78
2023-11-16T23:24:06.014Z,97818.03
2023-11-16T23:26:32.839Z,97824.88
2023-11-16T23:28:59.664Z,97840.47
2023-11-16T23:31:26.448Z,97858.16
2023-11-16T23:33:52.900Z,97878.50
2023-11-16T23:36:19.874Z,97888.25
2023-11-16T23:38:48.795Z,97902.06
2023-11-16T23:41:15.757Z,97911.16
2023-11-16T23:43:42.480Z,97912.53
2023-11-16T23:46:09.206Z,97930.44
2023-11-16T23:48:35.831Z,97938.94
2023-11-16T23:51:13.064Z,97951.72
2023-11-16T23:53:46.056Z,97955.38
2023-11-16T23:56:12.640Z,97960.69
2023-11-16T23:58:39.182Z,97976.22
